sensor_id;sensor_type;location;lat;lon;timestamp;pressure;altitude;pressure_sealevel;temperature;humidity
15444;BME280;7822;48.146;11.576;2024-03-06T00:00:39;94932.56;;;15.22;60.88
15444;BME280;7822;48.146;11.576;2024-03-06T00:03:07;94932.56;;;15.22;60.75
15444;BME280;7822;48.146;11.576;2024-03-06T00:05:36;94935.16;;;15.22;60.77
15444;BME280;7822;48.146;11.576;2024-03-06T00:08:04;94932.56;;;15.22;60.77
15444;BME280;7822;48.146;11.576;2024-03-06T00:10:32;94933.34;;;15.22;60.70
15444;BME280;7822;48.146;11.576;2024-03-06T00:13:00;94938.56;;;15.22;60.72
15444;BME280;7822;48.146;11.576;2024-03-06T00:15:27;94935.97;;;15.22;60.92
15444;BME280;7822;48.146;11.576;2024-03-06T00:17:55;94944.63;;;15.23;60.59
15444;BME280;7822;48.146;11.576;2024-03-06T00:20:22;94943.78;;;15.22;60.97
15444;BME280;7822;48.146;11.576;2024-03-06T00:22:51;94939.56;;;15.21;60.63
15444;BME280;7822;48.146;11.576;2024-03-06T00:25:19;94943.00;;;15.22;60.72
15444;BME280;7822;48.146;11.576;2024-03-06T00:27:46;94941.19;;;15.22;60.80
15444;BME280;7822;48.146;11.576;2024-03-06T00:30:14;94939.56;;;15.21;60.68
15444;BME280;7822;48.146;11.576;2024-03-06T00:32:42;94943.00;;;15.22;61.00
15444;BME280;7822;48.146;11.576;2024-03-06T00:35:09;94933.34;;;15.22;60.80
15444;BME280;7822;48.146;11.576;2024-03-06T00:37:38;94936.94;;;15.21;60.80
15444;BME280;7822;48.146;11.576;2024-03-06T00:40:08;94944.78;;;15.21;60.83
15444;BME280;7822;48.146;11.576;2024-03-06T00:42:35;94936.94;;;15.21;60.60
15444;BME280;7822;48.146;11.576;2024-03-06T00:45:03;94938.72;;;15.21;60.66
15444;BME280;7822;48.146;11.576;2024-03-06T00:47:31;94941.19;;;15.22;60.76
15444;BME280;7822;48.146;11.576;2024-03-06T00:50:00;94939.56;;;15.21;60.86
15444;BME280;7822;48.146;11.576;2024-03-06T00:52:28;94940.38;;;15.22;60.67
15444;BME280;7822;48.146;11.576;2024-03-06T00:54:56;94936.94;;;15.21;60.74
15444;BME280;7822;48.146;11.576;2024-03-06T00:57:24;94934.34;;;15.21;60.91
15444;BME280;7822;48.146;11.576;2024-03-06T00:59:52;94932.69;;;15.20;60.74
15444;BME280;7822;48.146;11.576;2024-03-06T01:02:19;94931.88;;;15.20;61.01
15444;BME280;7822;48.146;11.576;2024-03-06T01:04:47;94933.50;;;15.21;60.83
15444;BME280;7822;48.146;11.576;2024-03-06T01:07:14;94934.34;;;15.21;60.93
15444;BME280;7822;48.146;11.576;2024-03-06T01:09:42;94923.06;;;15.21;60.80
15444;BME280;7822;48.146;11.576;2024-03-06T01:12:09;94927.47;;;15.20;60.73
15444;BME280;7822;48.146;11.576;2024-03-06T01:14:38;94932.69;;;15.20;60.74
15444;BME280;7822;48.146;11.576;2024-03-06T01:17:06;94929.09;;;15.21;60.85
15444;BME280;7822;48.146;11.576;2024-03-06T01:19:33;94929.09;;;15.21;60.84
15444;BME280;7822;48.146;11.576;2024-03-06T01:22:01;94928.28;;;15.21;60.81
15444;BME280;7822;48.146;11.576;2024-03-06T01:24:28;94929.94;;;15.22;60.88
15444;BME280;7822;48.146;11.576;2024-03-06T01:26:56;94923.88;;;15.21;60.83
15444;BME280;7822;48.146;11.576;2024-03-06T01:29:23;94930.06;;;15.20;60.57
15444;BME280;7822;48.146;11.576;2024-03-06T01:31:52;94922.22;;;15.20;60.61
15444;BME280;7822;48.146;11.576;2024-03-06T01:34:20;94922.22;;;15.20;60.88
15444;BME280;7822;48.146;11.576;2024-03-06T01:36:48;94918.81;;;15.20;61.04
15444;BME280;7822;48.146;11.576;2024-03-06T01:39:15;94915.22;;;15.21;60.94
15444;BME280;7822;48.146;11.576;2024-03-06T01:41:44;94919.63;;;15.20;61.09
15444;BME280;7822;48.146;11.576;2024-03-06T01:44:12;94913.59;;;15.20;60.96
15444;BME280;7822;48.146;11.576;2024-03-06T01:46:39;94915.22;;;15.21;61.04
15444;BME280;7822;48.146;11.576;2024-03-06T01:49:08;94905.75;;;15.20;61.03
15444;BME280;7822;48.146;11.576;2024-03-06T01:51:36;94907.38;;;15.21;60.93
15444;BME280;7822;48.146;11.576;2024-03-06T01:54:03;94910.81;;;15.21;60.85
15444;BME280;7822;48.146;11.576;2024-03-06T01:56:31;94906.56;;;15.20;60.91
15444;BME280;7822;48.146;11.576;2024-03-06T01:59:00;94901.31;;;15.20;61.14
15444;BME280;7822;48.146;11.576;2024-03-06T02:01:28;94908.38;;;15.20;61.19
15444;BME280;7822;48.146;11.576;2024-03-06T02:03:56;94902.16;;;15.21;61.08
15444;BME280;7822;48.146;11.576;2024-03-06T02:06:25;94903.94;;;15.20;61.33
15444;BME280;7822;48.146;11.576;2024-03-06T02:08:52;94904.94;;;15.19;61.06
15444;BME280;7822;48.146;11.576;2024-03-06T02:11:20;94901.31;;;15.20;61.06
15444;BME280;7822;48.146;11.576;2024-03-06T02:13:49;94896.09;;;15.20;61.05
15444;BME280;7822;48.146;11.576;2024-03-06T02:16:17;94893.50;;;15.20;61.13
15444;BME280;7822;48.146;11.576;2024-03-06T02:18:53;94894.47;;;15.19;61.07
15444;BME280;7822;48.146;11.576;2024-03-06T02:21:22;94885.66;;;15.20;61.18
15444;BME280;7822;48.146;11.576;2024-03-06T02:23:50;94884.84;;;15.20;61.18
15444;BME280;7822;48.146;11.576;2024-03-06T02:26:18;94883.22;;;15.19;61.30
15444;BME280;7822;48.146;11.576;2024-03-06T02:28:46;94878.81;;;15.19;61.03
15444;BME280;7822;48.146;11.576;2024-03-06T02:31:14;94877.97;;;15.19;60.99
15444;BME280;7822;48.146;11.576;2024-03-06T02:33:42;94880.59;;;15.19;61.28
15444;BME280;7822;48.146;11.576;2024-03-06T02:36:09;94891.88;;;15.19;61.03
15444;BME280;7822;48.146;11.576;2024-03-06T02:38:38;94893.50;;;15.20;61.27
15444;BME280;7822;48.146;11.576;2024-03-06T02:41:06;94896.28;;;15.19;61.00
15444;BME280;7822;48.146;11.576;2024-03-06T02:43:34;94896.28;;;15.19;61.21
15444;BME280;7822;48.146;11.576;2024-03-06T02:46:02;94894.66;;;15.18;61.18
15444;BME280;7822;48.146;11.576;2024-03-06T02:48:30;94902.31;;;15.19;61.27
15444;BME280;7822;48.146;11.576;2024-03-06T02:50:58;94899.72;;;15.19;61.18
15444;BME280;7822;48.146;11.576;2024-03-06T02:53:25;94903.28;;;15.18;61.25
15444;BME280;7822;48.146;11.576;2024-03-06T02:55:55;94898.06;;;15.18;61.27
15444;BME280;7822;48.146;11.576;2024-03-06T02:58:22;94903.28;;;15.18;61.17
15444;BME280;7822;48.146;11.576;2024-03-06T03:00:50;94905.91;;;15.18;60.79
15444;BME280;7822;48.146;11.576;2024-03-06T03:03:18;94903.44;;;15.17;61.11
15444;BME280;7822;48.146;11.576;2024-03-06T03:05:46;94905.91;;;15.18;60.98
15444;BME280;7822;48.146;11.576;2024-03-06T03:08:13;94903.28;;;15.18;61.06
15444;BME280;7822;48.146;11.576;2024-03-06T03:10:42;94911.94;;;15.19;60.93
15444;BME280;7822;48.146;11.576;2024-03-06T03:13:13;94906.88;;;15.17;60.97
15444;BME280;7822;48.146;11.576;2024-03-06T03:15:40;94911.13;;;15.18;61.17
15444;BME280;7822;48.146;11.576;2024-03-06T03:18:08;94911.28;;;15.17;61.01
15444;BME280;7822;48.146;11.576;2024-03-06T03:20:35;94911.13;;;15.18;61.18
15444;BME280;7822;48.146;11.576;2024-03-06T03:23:03;94906.88;;;15.17;61.02
15444;BME280;7822;48.146;11.576;2024-03-06T03:25:32;94911.28;;;15.17;61.09
15444;BME280;7822;48.146;11.576;2024-03-06T03:28:00;94920.78;;;15.18;61.28
15444;BME280;7822;48.146;11.576;2024-03-06T03:30:29;94919.13;;;15.17;61.14
15444;BME280;7822;48.146;11.576;2024-03-06T03:32:58;94923.41;;;15.18;61.06
15444;BME280;7822;48.146;11.576;2024-03-06T03:35:26;94915.56;;;15.18;61.25
15444;BME280;7822;48.146;11.576;2024-03-06T03:37:53;94914.72;;;15.17;60.92
15444;BME280;7822;48.146;11.576;2024-03-06T03:40:21;94917.34;;;15.17;61.07
15444;BME280;7822;48.146;11.576;2024-03-06T03:42:49;94913.91;;;15.17;61.14
15444;BME280;7822;48.146;11.576;2024-03-06T03:45:17;94907.03;;;15.16;61.24
15444;BME280;7822;48.146;11.576;2024-03-06T03:47:47;94915.69;;;15.16;61.04
15444;BME280;7822;48.146;11.576;2024-03-06T03:50:15;94916.50;;;15.17;61.13
15444;BME280;7822;48.146;11.576;2024-03-06T03:52:42;94916.50;;;15.17;61.19
15444;BME280;7822;48.146;11.576;2024-03-06T03:55:10;94916.50;;;15.17;61.07
15444;BME280;7822;48.146;11.576;2024-03-06T03:57:37;94919.94;;;15.17;61.24
15444;BME280;7822;48.146;11.576;2024-03-06T04:00:06;94920.78;;;15.18;61.06
15444;BME280;7822;48.146;11.576;2024-03-06T04:02:37;94922.56;;;15.17;61.34
15444;BME280;7822;48.146;11.576;2024-03-06T04:05:07;94926.00;;;15.18;61.10
15444;BME280;7822;48.146;11.576;2024-03-06T04:07:35;94927.78;;;15.17;61.50
15444;BME280;7822;48.146;11.576;2024-03-06T04:10:03;94925.19;;;15.17;61.40
15444;BME280;7822;48.146;11.576;2024-03-06T04:12:31;94927.94;;;15.16;61.31
15444;BME280;7822;48.146;11.576;2024-03-06T04:14:58;94931.38;;;15.16;61.29
15444;BME280;7822;48.146;11.576;2024-03-06T04:17:26;94934.81;;;15.17;61.23
15444;BME280;7822;48.146;11.576;2024-03-06T04:19:53;94934.81;;;15.17;61.22
15444;BME280;7822;48.146;11.576;2024-03-06T04:22:23;94927.94;;;15.16;61.32
15444;BME280;7822;48.146;11.576;2024-03-06T04:24:50;94941.00;;;15.16;61.06
15444;BME280;7822;48.146;11.576;2024-03-06T04:27:18;94935.63;;;15.17;61.28
15444;BME280;7822;48.146;11.576;2024-03-06T04:29:45;94933.16;;;15.16;61.28
15444;BME280;7822;48.146;11.576;2024-03-06T04:32:13;94935.75;;;15.16;61.32
15444;BME280;7822;48.146;11.576;2024-03-06T04:34:40;94943.59;;;15.16;61.36
15444;BME280;7822;48.146;11.576;2024-03-06T04:37:08;94938.38;;;15.16;61.19
15444;BME280;7822;48.146;11.576;2024-03-06T04:39:37;94949.66;;;15.16;61.15
15444;BME280;7822;48.146;11.576;2024-03-06T04:42:04;94942.00;;;15.15;61.37
15444;BME280;7822;48.146;11.576;2024-03-06T04:44:33;94946.22;;;15.16;61.33
15444;BME280;7822;48.146;11.576;2024-03-06T04:47:01;94944.59;;;15.15;61.39
15444;BME280;7822;48.146;11.576;2024-03-06T04:49:32;94956.66;;;15.16;61.44
15444;BME280;7822;48.146;11.576;2024-03-06T04:51:59;94955.88;;;15.15;61.38
15444;BME280;7822;48.146;11.576;2024-03-06T04:54:27;94960.28;;;15.15;61.31
15444;BME280;7822;48.146;11.576;2024-03-06T04:56:56;94968.13;;;15.15;61.08
15444;BME280;7822;48.146;11.576;2024-03-06T04:59:23;94972.34;;;15.16;61.32
15444;BME280;7822;48.146;11.576;2024-03-06T05:01:51;94968.13;;;15.15;61.44
15444;BME280;7822;48.146;11.576;2024-03-06T05:04:18;94976.78;;;15.15;61.39
15444;BME280;7822;48.146;11.576;2024-03-06T05:07:05;94974.97;;;15.16;61.28
15444;BME280;7822;48.146;11.576;2024-03-06T05:09:50;94986.25;;;15.16;61.34
15444;BME280;7822;48.146;11.576;2024-03-06T05:12:36;94986.25;;;15.16;61.33
15444;BME280;7822;48.146;11.576;2024-03-06T05:15:21;94987.06;;;15.17;61.41
15444;BME280;7822;48.146;11.576;2024-03-06T05:18:06;94990.50;;;15.17;61.28
15444;BME280;7822;48.146;11.576;2024-03-06T05:20:53;94992.94;;;15.19;61.32
15444;BME280;7822;48.146;11.576;2024-03-06T05:23:38;94984.28;;;15.18;61.45
15444;BME280;7822;48.146;11.576;2024-03-06T05:26:23;94986.91;;;15.18;61.33
15444;BME280;7822;48.146;11.576;2024-03-06T05:29:09;94989.50;;;15.18;61.40
15444;BME280;7822;48.146;11.576;2024-03-06T05:31:54;94993.94;;;15.18;61.41
15444;BME280;7822;48.146;11.576;2024-03-06T05:34:40;94997.34;;;15.18;61.24
15444;BME280;7822;48.146;11.576;2024-03-06T05:37:25;95003.41;;;15.19;61.37
15444;BME280;7822;48.146;11.576;2024-03-06T05:40:11;95004.41;;;15.18;61.43
15444;BME280;7822;48.146;11.576;2024-03-06T05:42:56;95001.63;;;15.19;61.46
15444;BME280;7822;48.146;11.576;2024-03-06T05:45:42;95009.44;;;15.19;61.45
15444;BME280;7822;48.146;11.576;2024-03-06T05:48:27;95006.84;;;15.19;61.46
15444;BME280;7822;48.146;11.576;2024-03-06T05:51:12;95004.22;;;15.19;61.50
15444;BME280;7822;48.146;11.576;2024-03-06T05:53:57;95010.41;;;15.18;61.20
15444;BME280;7822;48.146;11.576;2024-03-06T05:56:42;95014.84;;;15.18;61.20
15444;BME280;7822;48.146;11.576;2024-03-06T05:59:27;95020.88;;;15.18;61.21
15444;BME280;7822;48.146;11.576;2024-03-06T06:01:56;95018.25;;;15.18;61.23
15444;BME280;7822;48.146;11.576;2024-03-06T06:04:23;95018.25;;;15.18;61.33
15444;BME280;7822;48.146;11.576;2024-03-06T06:06:52;95022.69;;;15.18;61.20
15444;BME280;7822;48.146;11.576;2024-03-06T06:09:19;95021.69;;;15.19;61.03
15444;BME280;7822;48.146;11.576;2024-03-06T06:11:47;95026.09;;;15.18;61.33
15444;BME280;7822;48.146;11.576;2024-03-06T06:14:16;95029.69;;;15.17;61.22
15444;BME280;7822;48.146;11.576;2024-03-06T06:16:44;95034.09;;;15.17;61.23
15444;BME280;7822;48.146;11.576;2024-03-06T06:19:13;95033.13;;;15.18;61.31
15444;BME280;7822;48.146;11.576;2024-03-06T06:21:40;95030.53;;;15.18;61.18
15444;BME280;7822;48.146;11.576;2024-03-06T06:24:08;95043.59;;;15.18;61.34
15444;BME280;7822;48.146;11.576;2024-03-06T06:26:35;95041.78;;;15.18;61.21
15444;BME280;7822;48.146;11.576;2024-03-06T06:29:03;95047.81;;;15.19;61.21
15444;BME280;7822;48.146;11.576;2024-03-06T06:31:31;95044.38;;;15.18;61.33
15444;BME280;7822;48.146;11.576;2024-03-06T06:33:58;95047.81;;;15.19;61.22
15444;BME280;7822;48.146;11.576;2024-03-06T06:36:27;95047.81;;;15.19;61.18
15444;BME280;7822;48.146;11.576;2024-03-06T06:38:55;95045.22;;;15.19;61.13
15444;BME280;7822;48.146;11.576;2024-03-06T06:41:23;95053.06;;;15.19;61.42
15444;BME280;7822;48.146;11.576;2024-03-06T06:43:51;95053.88;;;15.19;61.22
15444;BME280;7822;48.146;11.576;2024-03-06T06:46:18;95055.66;;;15.19;61.26
15444;BME280;7822;48.146;11.576;2024-03-06T06:48:47;95060.06;;;15.18;61.23
15444;BME280;7822;48.146;11.576;2024-03-06T06:51:15;95060.88;;;15.19;61.16
15444;BME280;7822;48.146;11.576;2024-03-06T06:53:44;95057.31;;;15.20;61.20
15444;BME280;7822;48.146;11.576;2024-03-06T06:56:12;95067.09;;;15.18;61.11
15444;BME280;7822;48.146;11.576;2024-03-06T06:58:39;95067.91;;;15.18;61.06
15444;BME280;7822;48.146;11.576;2024-03-06T07:01:09;95066.13;;;15.19;61.08
15444;BME280;7822;48.146;11.576;2024-03-06T07:03:37;95069.72;;;15.18;61.20
15444;BME280;7822;48.146;11.576;2024-03-06T07:06:04;95076.56;;;15.19;61.33
15444;BME280;7822;48.146;11.576;2024-03-06T07:08:32;95075.75;;;15.18;61.19
15444;BME280;7822;48.146;11.576;2024-03-06T07:11:01;95080.97;;;15.18;61.19
15444;BME280;7822;48.146;11.576;2024-03-06T07:13:29;95078.34;;;15.18;61.39
15444;BME280;7822;48.146;11.576;2024-03-06T07:15:56;95076.72;;;15.17;61.19
15444;BME280;7822;48.146;11.576;2024-03-06T07:18:24;95070.50;;;15.18;61.17
15444;BME280;7822;48.146;11.576;2024-03-06T07:20:51;95074.94;;;15.18;61.32
15444;BME280;7822;48.146;11.576;2024-03-06T07:23:19;95075.91;;;15.17;61.29
15444;BME280;7822;48.146;11.576;2024-03-06T07:25:47;95084.41;;;15.19;61.27
15444;BME280;7822;48.146;11.576;2024-03-06T07:28:16;95083.75;;;15.17;61.19
15444;BME280;7822;48.146;11.576;2024-03-06T07:30:43;95080.00;;;15.19;61.27
15444;BME280;7822;48.146;11.576;2024-03-06T07:33:11;95079.19;;;15.19;61.29
15444;BME280;7822;48.146;11.576;2024-03-06T07:35:40;95083.44;;;15.20;61.41
15444;BME280;7822;48.146;11.576;2024-03-06T07:38:08;95091.28;;;15.20;61.14
15444;BME280;7822;48.146;11.576;2024-03-06T07:40:36;95092.25;;;15.19;61.34
15444;BME280;7822;48.146;11.576;2024-03-06T07:43:04;95090.47;;;15.19;61.08
15444;BME280;7822;48.146;11.576;2024-03-06T07:45:33;95091.28;;;15.20;61.27
15444;BME280;7822;48.146;11.576;2024-03-06T07:48:01;95097.31;;;15.20;61.30
15444;BME280;7822;48.146;11.576;2024-03-06T07:50:28;95087.84;;;15.19;61.29
15444;BME280;7822;48.146;11.576;2024-03-06T07:52:56;95099.13;;;15.20;61.32
15444;BME280;7822;48.146;11.576;2024-03-06T07:55:24;95101.75;;;15.20;61.46
15444;BME280;7822;48.146;11.576;2024-03-06T07:57:51;95109.56;;;15.20;61.28
15444;BME280;7822;48.146;11.576;2024-03-06T08:00:19;95108.75;;;15.19;61.33
15444;BME280;7822;48.146;11.576;2024-03-06T08:02:48;95109.56;;;15.20;61.16
15444;BME280;7822;48.146;11.576;2024-03-06T08:05:16;95110.53;;;15.19;61.34
15444;BME280;7822;48.146;11.576;2024-03-06T08:07:44;95111.38;;;15.19;61.41
15444;BME280;7822;48.146;11.576;2024-03-06T08:10:13;95106.97;;;15.20;61.27
15444;BME280;7822;48.146;11.576;2024-03-06T08:12:40;95111.38;;;15.19;61.38
15444;BME280;7822;48.146;11.576;2024-03-06T08:15:09;95113.97;;;15.19;61.30
15444;BME280;7822;48.146;11.576;2024-03-06T08:17:38;95116.59;;;15.19;61.46
15444;BME280;7822;48.146;11.576;2024-03-06T08:20:08;95116.59;;;15.19;61.40
15444;BME280;7822;48.146;11.576;2024-03-06T08:22:37;95119.22;;;15.19;61.56
15444;BME280;7822;48.146;11.576;2024-03-06T08:25:06;95113.16;;;15.19;61.50
15444;BME280;7822;48.146;11.576;2024-03-06T08:27:34;95114.94;;;15.18;61.39
15444;BME280;7822;48.146;11.576;2024-03-06T08:30:02;95112.19;;;15.20;61.29
15444;BME280;7822;48.146;11.576;2024-03-06T08:32:30;95121.00;;;15.19;61.44
15444;BME280;7822;48.146;11.576;2024-03-06T08:34:59;95123.59;;;15.19;61.35
15444;BME280;7822;48.146;11.576;2024-03-06T08:37:28;95126.06;;;15.20;61.44
15444;BME280;7822;48.146;11.576;2024-03-06T08:39:56;95132.28;;;15.19;61.51
15444;BME280;7822;48.146;11.576;2024-03-06T08:42:24;95133.09;;;15.20;61.33
15444;BME280;7822;48.146;11.576;2024-03-06T08:44:51;95131.28;;;15.20;61.50
15444;BME280;7822;48.146;11.576;2024-03-06T08:47:19;95133.09;;;15.20;61.42
15444;BME280;7822;48.146;11.576;2024-03-06T08:49:46;95136.50;;;15.20;61.56
15444;BME280;7822;48.146;11.576;2024-03-06T08:52:14;95137.34;;;15.21;61.58
15444;BME280;7822;48.146;11.576;2024-03-06T08:54:43;95140.94;;;15.20;61.48
15444;BME280;7822;48.146;11.576;2024-03-06T08:57:10;95143.56;;;15.20;61.56
15444;BME280;7822;48.146;11.576;2024-03-06T08:59:37;95135.84;;;15.18;61.48
15444;BME280;7822;48.146;11.576;2024-03-06T09:02:12;95143.56;;;15.20;61.64
15444;BME280;7822;48.146;11.576;2024-03-06T09:04:39;95155.78;;;15.19;61.46
15444;BME280;7822;48.146;11.576;2024-03-06T09:07:07;95154.00;;;15.20;61.46
15444;BME280;7822;48.146;11.576;2024-03-06T09:09:35;95153.19;;;15.19;61.51
15444;BME280;7822;48.146;11.576;2024-03-06T09:12:04;95161.00;;;15.19;61.39
15444;BME280;7822;48.146;11.576;2024-03-06T09:14:32;95156.63;;;15.20;61.70
15444;BME280;7822;48.146;11.576;2024-03-06T09:17:00;95166.25;;;15.19;61.38
15444;BME280;7822;48.146;11.576;2024-03-06T09:19:28;95172.28;;;15.20;61.63
15444;BME280;7822;48.146;11.576;2024-03-06T09:21:56;95160.03;;;15.20;61.61
15444;BME280;7822;48.146;11.576;2024-03-06T09:24:24;95166.25;;;15.19;61.73
15444;BME280;7822;48.146;11.576;2024-03-06T09:26:54;95174.09;;;15.19;61.38
15444;BME280;7822;48.146;11.576;2024-03-06T09:29:23;95175.72;;;15.20;61.55
15444;BME280;7822;48.146;11.576;2024-03-06T09:31:51;95173.09;;;15.20;61.62
15444;BME280;7822;48.146;11.576;2024-03-06T09:34:18;95169.69;;;15.20;61.79
15444;BME280;7822;48.146;11.576;2024-03-06T09:36:48;95172.28;;;15.20;61.73
15444;BME280;7822;48.146;11.576;2024-03-06T09:39:16;95177.53;;;15.20;61.45
15444;BME280;7822;48.146;11.576;2024-03-06T09:41:46;95179.16;;;15.21;61.81
15444;BME280;7822;48.146;11.576;2024-03-06T09:44:14;95182.59;;;15.21;61.57
15444;BME280;7822;48.146;11.576;2024-03-06T09:46:44;95183.53;;;15.20;61.67
15444;BME280;7822;48.146;11.576;2024-03-06T09:49:12;95179.16;;;15.21;61.64
15444;BME280;7822;48.146;11.576;2024-03-06T09:51:42;95180.81;;;15.22;61.51
15444;BME280;7822;48.146;11.576;2024-03-06T09:54:11;95188.63;;;15.22;61.73
15444;BME280;7822;48.146;11.576;2024-03-06T09:56:41;95192.06;;;15.22;61.69
15444;BME280;7822;48.146;11.576;2024-03-06T09:59:11;95191.25;;;15.22;61.65
15444;BME280;7822;48.146;11.576;2024-03-06T10:01:39;95189.44;;;15.22;61.51
15444;BME280;7822;48.146;11.576;2024-03-06T10:04:19;95192.06;;;15.22;61.55
15444;BME280;7822;48.146;11.576;2024-03-06T10:06:46;95191.25;;;15.22;61.68
15444;BME280;7822;48.146;11.576;2024-03-06T10:09:16;95193.88;;;15.22;61.68
15444;BME280;7822;48.146;11.576;2024-03-06T10:11:43;95188.63;;;15.22;61.63
15444;BME280;7822;48.146;11.576;2024-03-06T10:14:13;95196.47;;;15.22;61.71
15444;BME280;7822;48.146;11.576;2024-03-06T10:19:26;95200.88;;;15.21;61.70
15444;BME280;7822;48.146;11.576;2024-03-06T10:21:54;95200.88;;;15.21;61.47
15444;BME280;7822;48.146;11.576;2024-03-06T10:24:24;95200.88;;;15.21;61.72
15444;BME280;7822;48.146;11.576;2024-03-06T10:26:52;95199.09;;;15.22;61.65
15444;BME280;7822;48.146;11.576;2024-03-06T10:29:22;95207.06;;;15.20;61.76
15444;BME280;7822;48.146;11.576;2024-03-06T10:31:51;95207.06;;;15.20;61.73
15444;BME280;7822;48.146;11.576;2024-03-06T10:34:18;95215.72;;;15.21;61.73
15444;BME280;7822;48.146;11.576;2024-03-06T10:36:49;95214.91;;;15.20;61.55
15444;BME280;7822;48.146;11.576;2024-03-06T10:39:20;95214.91;;;15.20;61.70
15444;BME280;7822;48.146;11.576;2024-03-06T10:41:51;95226.19;;;15.21;61.61
15444;BME280;7822;48.146;11.576;2024-03-06T10:44:20;95222.75;;;15.20;61.70
15444;BME280;7822;48.146;11.576;2024-03-06T10:46:51;95223.72;;;15.19;61.77
15444;BME280;7822;48.146;11.576;2024-03-06T10:49:23;95231.56;;;15.19;61.60
15444;BME280;7822;48.146;11.576;2024-03-06T10:51:53;95218.50;;;15.19;61.64
15444;BME280;7822;48.146;11.576;2024-03-06T10:54:21;95224.56;;;15.20;61.58
15444;BME280;7822;48.146;11.576;2024-03-06T10:56:49;95222.75;;;15.20;61.83
15444;BME280;7822;48.146;11.576;2024-03-06T10:59:17;95228.97;;;15.19;61.61
15444;BME280;7822;48.146;11.576;2024-03-06T11:01:45;95224.41;;;15.21;61.66
15444;BME280;7822;48.146;11.576;2024-03-06T11:04:14;95219.34;;;15.20;61.53
15444;BME280;7822;48.146;11.576;2024-03-06T11:06:42;95223.56;;;15.21;61.66
15444;BME280;7822;48.146;11.576;2024-03-06T11:09:12;95229.63;;;15.21;61.65
15444;BME280;7822;48.146;11.576;2024-03-06T11:11:48;95228.78;;;15.21;61.74
15444;BME280;7822;48.146;11.576;2024-03-06T11:14:16;95234.03;;;15.21;61.70
15444;BME280;7822;48.146;11.576;2024-03-06T11:16:56;95234.84;;;15.21;61.88
15444;BME280;7822;48.146;11.576;2024-03-06T11:19:24;95227.97;;;15.20;61.76
15444;BME280;7822;48.146;11.576;2024-03-06T11:21:51;95234.03;;;15.21;61.51
15444;BME280;7822;48.146;11.576;2024-03-06T11:24:21;95238.28;;;15.22;61.96
15444;BME280;7822;48.146;11.576;2024-03-06T11:26:49;95227.97;;;15.20;61.80
15444;BME280;7822;48.146;11.576;2024-03-06T11:29:18;95237.47;;;15.21;61.82
15444;BME280;7822;48.146;11.576;2024-03-06T11:34:30;95240.09;;;15.21;61.70
15444;BME280;7822;48.146;11.576;2024-03-06T11:36:58;95232.25;;;15.21;61.63
15444;BME280;7822;48.146;11.576;2024-03-06T11:39:32;95239.25;;;15.21;61.78
15444;BME280;7822;48.146;11.576;2024-03-06T11:42:03;95239.25;;;15.21;61.67
15444;BME280;7822;48.146;11.576;2024-03-06T11:44:31;95227.97;;;15.20;61.85
15444;BME280;7822;48.146;11.576;2024-03-06T11:47:00;95231.56;;;15.19;61.74
15444;BME280;7822;48.146;11.576;2024-03-06T11:49:28;95235.00;;;15.20;61.79
15444;BME280;7822;48.146;11.576;2024-03-06T11:51:58;95231.56;;;15.19;61.87
15444;BME280;7822;48.146;11.576;2024-03-06T11:54:26;95231.56;;;15.19;61.75
15444;BME280;7822;48.146;11.576;2024-03-06T11:56:56;95234.19;;;15.19;61.85
15444;BME280;7822;48.146;11.576;2024-03-06T11:59:24;95229.78;;;15.20;61.97
15444;BME280;7822;48.146;11.576;2024-03-06T12:01:52;95235.00;;;15.20;61.83
15444;BME280;7822;48.146;11.576;2024-03-06T12:04:19;95238.59;;;15.19;61.64
15444;BME280;7822;48.146;11.576;2024-03-06T12:06:48;95235.97;;;15.19;61.57
15444;BME280;7822;48.146;11.576;2024-03-06T12:09:15;95235.97;;;15.19;61.62
15444;BME280;7822;48.146;11.576;2024-03-06T12:11:43;95234.19;;;15.19;61.92
15444;BME280;7822;48.146;11.576;2024-03-06T12:14:16;95242.84;;;15.20;61.63
15444;BME280;7822;48.146;11.576;2024-03-06T12:16:44;95244.63;;;15.19;61.88
15444;BME280;7822;48.146;11.576;2024-03-06T12:19:12;95239.41;;;15.19;61.63
15444;BME280;7822;48.146;11.576;2024-03-06T12:21:39;95246.25;;;15.20;61.76
15444;BME280;7822;48.146;11.576;2024-03-06T12:24:07;95244.63;;;15.19;61.74
15444;BME280;7822;48.146;11.576;2024-03-06T12:26:35;95239.41;;;15.19;61.73
15444;BME280;7822;48.146;11.576;2024-03-06T12:29:04;95250.69;;;15.20;61.79
15444;BME280;7822;48.146;11.576;2024-03-06T12:31:33;95248.88;;;15.20;61.70
15444;BME280;7822;48.146;11.576;2024-03-06T12:34:01;95244.63;;;15.19;61.80
15444;BME280;7822;48.146;11.576;2024-03-06T12:36:30;95250.53;;;15.21;61.86
15444;BME280;7822;48.146;11.576;2024-03-06T12:38:59;95247.91;;;15.21;61.81
15444;BME280;7822;48.146;11.576;2024-03-06T12:41:27;95249.88;;;15.19;61.73
15444;BME280;7822;48.146;11.576;2024-03-06T12:43:55;95253.31;;;15.20;61.67
15444;BME280;7822;48.146;11.576;2024-03-06T12:46:23;95255.09;;;15.19;61.71
15444;BME280;7822;48.146;11.576;2024-03-06T12:48:54;95250.69;;;15.20;61.86
15444;BME280;7822;48.146;11.576;2024-03-06T12:51:21;95258.53;;;15.20;61.86
15444;BME280;7822;48.146;11.576;2024-03-06T12:53:49;95255.09;;;15.19;61.68
15444;BME280;7822;48.146;11.576;2024-03-06T12:56:17;95258.53;;;15.20;62.03
15444;BME280;7822;48.146;11.576;2024-03-06T12:58:45;95262.09;;;15.19;61.88
15444;BME280;7822;48.146;11.576;2024-03-06T13:01:13;95261.28;;;15.18;61.70
15444;BME280;7822;48.146;11.576;2024-03-06T13:03:40;95268.16;;;15.19;61.87
15444;BME280;7822;48.146;11.576;2024-03-06T13:06:09;95255.09;;;15.19;61.64
15444;BME280;7822;48.146;11.576;2024-03-06T13:08:37;95255.91;;;15.20;61.66
15444;BME280;7822;48.146;11.576;2024-03-06T13:11:04;95257.69;;;15.19;61.72
15444;BME280;7822;48.146;11.576;2024-03-06T13:13:32;95261.16;;;15.20;61.71
15444;BME280;7822;48.146;11.576;2024-03-06T13:16:00;95256.72;;;15.20;61.86